Time;durP1;ratioP1;P1;durP2;ratioP2;P2;SDS_P1;SDS_P2;PMS_P1;PMS_P2;Temp;Humidity;BMP_temperature;BMP_pressure;BME280_temperature;BME280_humidity;BME280_pressure;Samples;Min_cycle;Max_cycle;Signal;HPM_P1;HPM_P2
2021/03/03 00:01:53;;;;;;;0.20;0.20;;;;;;;;;;5057054;28;20190;-64
2021/03/03 00:04:19;;;;;;;2.67;1.17;;;;;;;;;;5057033;28;20217;-64
2021/03/03 00:06:46;;;;;;;0.60;0.57;;;;;;;;;;5055124;28;20240;-63
2021/03/03 00:09:12;;;;;;;0.40;0.40;;;;;;;;;;5056522;28;20288;-63
2021/03/03 00:11:39;;;;;;;0.73;0.50;;;;;;;;;;5057252;28;20210;-63
2021/03/03 00:14:06;;;;;;;0.93;0.40;;;;;;;;;;5056592;28;20189;-63
2021/03/03 00:16:33;;;;;;;0.00;0.00;;;;;;;;;;5053053;28;20274;-63
2021/03/03 00:19:01;;;;;;;0.07;0.07;;;;;;;;;;5051348;28;20189;-63
2021/03/03 00:21:27;;;;;;;2.80;0.40;;;;;;;;;;5053039;28;20371;-64
2021/03/03 00:23:55;;;;;;;0.20;0.20;;;;;;;;;;5050723;28;20205;-64
2021/03/03 00:26:22;;;;;;;11.37;3.70;;;;;;;;;;5067578;28;20680;-64
2021/03/03 00:28:48;;;;;;;0.00;0.00;;;;;;;;;;5054974;28;20187;-64
2021/03/03 00:31:15;;;;;;;2.67;1.03;;;;;;;;;;5053631;28;20238;-64
2021/03/03 00:33:43;;;;;;;0.73;0.10;;;;;;;;;;5055806;28;20181;-64
2021/03/03 00:36:15;;;;;;;0.00;0.00;;;;;;;;;;5055802;28;20179;-64
2021/03/03 00:38:42;;;;;;;0.37;0.20;;;;;;;;;;5062717;28;20189;-64
2021/03/03 00:41:09;;;;;;;0.00;0.00;;;;;;;;;;5062983;28;20218;-64
2021/03/03 00:43:36;;;;;;;0.30;0.30;;;;;;;;;;5029301;28;20197;-64
2021/03/03 00:46:03;;;;;;;0.10;0.10;;;;;;;;;;5051562;28;20190;-64
2021/03/03 00:48:31;;;;;;;0.20;0.20;;;;;;;;;;5051337;28;20196;-64
2021/03/03 00:50:58;;;;;;;0.17;0.10;;;;;;;;;;5051321;28;20640;-64
2021/03/03 00:53:28;;;;;;;0.83;0.63;;;;;;;;;;5053090;28;21076;-64
2021/03/03 00:55:56;;;;;;;0.17;0.17;;;;;;;;;;5050789;28;20179;-65
2021/03/03 00:58:24;;;;;;;9.63;0.67;;;;;;;;;;5056072;28;20194;-64
2021/03/03 01:00:52;;;;;;;0.17;0.17;;;;;;;;;;5054764;28;20183;-65
2021/03/03 01:03:19;;;;;;;0.17;0.17;;;;;;;;;;5055653;28;20183;-64
2021/03/03 01:05:45;;;;;;;0.53;0.30;;;;;;;;;;5037006;28;20224;-64
2021/03/03 01:08:12;;;;;;;0.07;0.07;;;;;;;;;;5054922;28;20202;-64
2021/03/03 01:10:40;;;;;;;0.20;0.20;;;;;;;;;;5053639;28;20216;-64
2021/03/03 01:13:06;;;;;;;13.03;3.30;;;;;;;;;;5068149;28;20194;-64
2021/03/03 01:15:33;;;;;;;2.30;0.57;;;;;;;;;;5054911;28;20187;-64
2021/03/03 01:18:00;;;;;;;0.87;0.40;;;;;;;;;;5056387;28;20656;-64
2021/03/03 01:20:30;;;;;;;0.00;0.00;;;;;;;;;;5052898;28;20170;-64
2021/03/03 01:22:57;;;;;;;0.00;0.00;;;;;;;;;;5052439;28;20205;-64
2021/03/03 01:25:24;;;;;;;0.00;0.00;;;;;;;;;;5056386;28;20232;-64
2021/03/03 01:27:51;;;;;;;0.00;0.00;;;;;;;;;;5053899;28;20209;-64
2021/03/03 01:30:17;;;;;;;0.30;0.30;;;;;;;;;;5053336;28;20245;-64
2021/03/03 01:32:45;;;;;;;0.53;0.53;;;;;;;;;;5055777;28;20596;-64
2021/03/03 01:35:12;;;;;;;0.00;0.00;;;;;;;;;;5055863;28;20647;-64
2021/03/03 01:37:39;;;;;;;0.00;0.00;;;;;;;;;;5052692;28;20182;-64
2021/03/03 01:40:07;;;;;;;0.00;0.00;;;;;;;;;;5053402;28;20259;-64
2021/03/03 01:42:33;;;;;;;0.10;0.10;;;;;;;;;;5054238;28;20255;-64
2021/03/03 01:45:00;;;;;;;4.03;0.20;;;;;;;;;;5055012;28;20724;-64
2021/03/03 01:47:27;;;;;;;0.10;0.10;;;;;;;;;;5054715;28;20310;-64
2021/03/03 01:49:54;;;;;;;0.00;0.00;;;;;;;;;;5054208;28;20645;-64
2021/03/03 01:52:21;;;;;;;0.23;0.00;;;;;;;;;;5057553;28;20205;-63
2021/03/03 01:54:50;;;;;;;0.10;0.10;;;;;;;;;;5059308;28;20186;-64
2021/03/03 01:57:17;;;;;;;0.10;0.10;;;;;;;;;;5053602;28;20186;-64
2021/03/03 01:59:45;;;;;;;0.93;0.27;;;;;;;;;;5055856;28;20182;-64
2021/03/03 02:02:12;;;;;;;0.00;0.00;;;;;;;;;;5057144;28;20201;-64
2021/03/03 02:04:38;;;;;;;0.00;0.00;;;;;;;;;;5055627;28;20266;-64
2021/03/03 02:07:11;;;;;;;0.00;0.00;;;;;;;;;;5056291;28;20182;-64
2021/03/03 02:09:41;;;;;;;0.10;0.10;;;;;;;;;;5055755;28;21089;-64
2021/03/03 02:12:18;;;;;;;0.00;0.00;;;;;;;;;;5052789;28;20205;-64
2021/03/03 02:14:49;;;;;;;0.00;0.00;;;;;;;;;;5052209;28;21028;-64
2021/03/03 02:17:16;;;;;;;0.40;0.37;;;;;;;;;;5052563;28;20268;-64
2021/03/03 02:19:44;;;;;;;0.00;0.00;;;;;;;;;;5054032;28;20182;-65
2021/03/03 02:22:19;;;;;;;0.00;0.00;;;;;;;;;;5056271;28;20191;-64
2021/03/03 02:24:53;;;;;;;0.10;0.10;;;;;;;;;;4991943;28;20178;-64
2021/03/03 02:27:21;;;;;;;5.40;0.50;;;;;;;;;;5029206;28;20186;-64
2021/03/03 02:29:49;;;;;;;0.10;0.10;;;;;;;;;;5060585;28;20649;-64
2021/03/03 02:32:17;;;;;;;0.47;0.47;;;;;;;;;;5052162;28;20257;-64
2021/03/03 02:34:44;;;;;;;0.00;0.00;;;;;;;;;;5053969;28;20179;-64
2021/03/03 02:37:12;;;;;;;0.00;0.00;;;;;;;;;;5053250;28;20188;-64
2021/03/03 02:39:39;;;;;;;0.27;0.27;;;;;;;;;;5057166;28;20908;-64
2021/03/03 02:42:06;;;;;;;0.30;0.20;;;;;;;;;;5059456;28;20365;-64
2021/03/03 02:44:34;;;;;;;0.00;0.00;;;;;;;;;;5059180;28;20723;-64
2021/03/03 02:47:02;;;;;;;0.13;0.10;;;;;;;;;;5072187;28;21032;-64
2021/03/03 02:49:29;;;;;;;3.03;0.10;;;;;;;;;;5058949;28;20674;-64
2021/03/03 02:51:55;;;;;;;0.00;0.00;;;;;;;;;;5059756;28;20736;-64
2021/03/03 02:54:22;;;;;;;0.00;0.00;;;;;;;;;;5057318;28;20183;-64
2021/03/03 02:56:49;;;;;;;3.10;1.07;;;;;;;;;;5056037;28;20272;-64
2021/03/03 02:59:34;;;;;;;0.77;0.40;;;;;;;;;;5057864;28;20304;-64
2021/03/03 03:02:02;;;;;;;0.10;0.10;;;;;;;;;;5056207;28;20190;-64
2021/03/03 03:04:30;;;;;;;0.00;0.00;;;;;;;;;;5056682;28;20277;-64
2021/03/03 03:06:57;;;;;;;0.20;0.20;;;;;;;;;;5058067;28;20944;-64
2021/03/03 03:09:25;;;;;;;2.37;0.37;;;;;;;;;;5054914;28;20223;-65
2021/03/03 03:11:52;;;;;;;0.00;0.00;;;;;;;;;;5059480;28;20207;-64
2021/03/03 03:14:27;;;;;;;1.30;0.63;;;;;;;;;;5056973;28;20186;-64
2021/03/03 03:16:56;;;;;;;2.27;1.60;;;;;;;;;;5056361;28;20713;-64
2021/03/03 03:19:25;;;;;;;0.13;0.13;;;;;;;;;;5060416;28;20198;-64
2021/03/03 03:21:52;;;;;;;0.37;0.37;;;;;;;;;;5056354;28;20186;-64
2021/03/03 03:24:19;;;;;;;0.60;0.53;;;;;;;;;;5054752;28;20201;-65
2021/03/03 03:26:49;;;;;;;0.10;0.10;;;;;;;;;;5051592;28;20248;-64
2021/03/03 03:29:16;;;;;;;1.07;1.07;;;;;;;;;;5053206;28;20997;-64
2021/03/03 03:31:44;;;;;;;0.20;0.20;;;;;;;;;;5056178;28;20348;-65
2021/03/03 03:34:11;;;;;;;0.37;0.37;;;;;;;;;;5057151;28;20182;-64
2021/03/03 03:36:38;;;;;;;0.10;0.10;;;;;;;;;;5053647;28;20204;-64
2021/03/03 03:39:07;;;;;;;0.10;0.10;;;;;;;;;;5057267;28;20203;-64
2021/03/03 03:41:33;;;;;;;0.60;0.60;;;;;;;;;;5054784;28;20742;-64
2021/03/03 03:44:00;;;;;;;0.30;0.30;;;;;;;;;;5056183;28;20544;-64
2021/03/03 03:46:28;;;;;;;0.47;0.47;;;;;;;;;;5052342;28;20252;-64
2021/03/03 03:48:55;;;;;;;0.53;0.30;;;;;;;;;;5054083;28;20203;-65
2021/03/03 03:51:22;;;;;;;0.10;0.10;;;;;;;;;;5058546;28;20251;-64
2021/03/03 03:53:48;;;;;;;0.10;0.10;;;;;;;;;;5054888;28;20274;-65
2021/03/03 03:56:15;;;;;;;0.10;0.10;;;;;;;;;;5057624;28;20234;-64
2021/03/03 03:58:42;;;;;;;0.10;0.10;;;;;;;;;;5053480;28;20724;-64
2021/03/03 04:01:08;;;;;;;0.07;0.07;;;;;;;;;;5056014;28;20708;-64
2021/03/03 04:03:35;;;;;;;0.10;0.10;;;;;;;;;;5057173;28;20213;-64
2021/03/03 04:06:02;;;;;;;0.77;0.30;;;;;;;;;;5053287;28;20880;-64
2021/03/03 04:08:28;;;;;;;0.00;0.00;;;;;;;;;;5053987;28;20194;-64
2021/03/03 04:10:55;;;;;;;2.00;0.33;;;;;;;;;;5053416;28;20213;-64
2021/03/03 04:13:22;;;;;;;0.10;0.10;;;;;;;;;;5057768;28;20864;-64
2021/03/03 04:15:48;;;;;;;0.13;0.13;;;;;;;;;;5053857;28;20270;-64
2021/03/03 04:18:15;;;;;;;0.20;0.20;;;;;;;;;;5055964;28;20193;-65
2021/03/03 04:20:41;;;;;;;2.00;1.90;;;;;;;;;;5057585;28;20202;-65
2021/03/03 04:23:11;;;;;;;0.10;0.10;;;;;;;;;;5058559;28;20190;-65
2021/03/03 04:25:38;;;;;;;0.10;0.10;;;;;;;;;;5059502;28;20202;-65
2021/03/03 04:28:04;;;;;;;0.10;0.10;;;;;;;;;;5057952;28;20530;-64
2021/03/03 04:30:31;;;;;;;0.10;0.10;;;;;;;;;;5058140;28;20229;-65
2021/03/03 04:32:59;;;;;;;0.10;0.10;;;;;;;;;;5057602;28;20193;-64
2021/03/03 04:35:25;;;;;;;0.10;0.10;;;;;;;;;;5062027;28;20186;-64
2021/03/03 04:37:53;;;;;;;0.07;0.07;;;;;;;;;;5057372;28;20181;-64
2021/03/03 04:40:20;;;;;;;0.10;0.10;;;;;;;;;;5060608;28;20639;-64
2021/03/03 04:42:46;;;;;;;0.10;0.10;;;;;;;;;;5056064;28;21045;-64
2021/03/03 04:45:13;;;;;;;0.10;0.10;;;;;;;;;;5031850;28;20259;-64
2021/03/03 04:47:40;;;;;;;0.10;0.10;;;;;;;;;;5058963;28;20189;-64
2021/03/03 04:50:08;;;;;;;0.10;0.10;;;;;;;;;;5059251;28;20194;-64
2021/03/03 04:52:34;;;;;;;2.40;2.20;;;;;;;;;;5054842;28;20206;-64
2021/03/03 04:55:01;;;;;;;0.10;0.10;;;;;;;;;;5056716;28;20898;-64
2021/03/03 04:57:28;;;;;;;0.10;0.10;;;;;;;;;;5058371;28;20190;-65
2021/03/03 04:59:54;;;;;;;0.10;0.10;;;;;;;;;;5053606;28;20197;-63
2021/03/03 05:02:21;;;;;;;0.43;0.40;;;;;;;;;;5055942;28;20181;-65
2021/03/03 05:04:48;;;;;;;0.10;0.10;;;;;;;;;;5056310;28;20185;-65
2021/03/03 05:07:14;;;;;;;0.10;0.10;;;;;;;;;;5055924;28;20189;-65
2021/03/03 05:09:41;;;;;;;0.30;0.23;;;;;;;;;;5056428;28;20234;-65
2021/03/03 05:12:08;;;;;;;0.10;0.10;;;;;;;;;;5053311;28;20205;-64
2021/03/03 05:14:35;;;;;;;0.10;0.10;;;;;;;;;;5056935;28;20251;-64
2021/03/03 05:17:01;;;;;;;1.23;1.13;;;;;;;;;;5056207;28;20190;-65
2021/03/03 05:19:28;;;;;;;0.10;0.10;;;;;;;;;;5054424;28;20289;-64
2021/03/03 05:21:54;;;;;;;0.10;0.10;;;;;;;;;;5056526;28;20251;-64
2021/03/03 05:24:21;;;;;;;0.77;0.77;;;;;;;;;;5069478;28;20625;-64
2021/03/03 05:26:47;;;;;;;0.03;0.03;;;;;;;;;;5054764;28;20218;-64
2021/03/03 05:29:14;;;;;;;0.10;0.10;;;;;;;;;;5055667;28;20193;-64
2021/03/03 05:31:41;;;;;;;0.10;0.10;;;;;;;;;;5053526;28;20703;-64
2021/03/03 05:34:07;;;;;;;0.10;0.10;;;;;;;;;;5057335;28;20734;-64
2021/03/03 05:36:34;;;;;;;0.10;0.10;;;;;;;;;;5056396;28;20176;-64
2021/03/03 05:39:00;;;;;;;0.10;0.10;;;;;;;;;;5056496;28;20189;-64
2021/03/03 05:41:29;;;;;;;0.10;0.10;;;;;;;;;;5054932;28;20183;-64
2021/03/03 05:43:56;;;;;;;0.10;0.10;;;;;;;;;;5054151;28;20201;-64
2021/03/03 05:46:26;;;;;;;0.10;0.10;;;;;;;;;;5055211;28;20470;-64
2021/03/03 05:49:01;;;;;;;0.30;0.30;;;;;;;;;;5051077;28;20418;-64
2021/03/03 05:51:31;;;;;;;0.33;0.33;;;;;;;;;;5059124;28;20671;-64
2021/03/03 05:54:03;;;;;;;0.03;0.03;;;;;;;;;;5057565;28;20199;-64
2021/03/03 05:56:30;;;;;;;0.10;0.10;;;;;;;;;;5055363;28;20178;-64
2021/03/03 05:58:56;;;;;;;0.10;0.10;;;;;;;;;;5055328;28;20349;-64
2021/03/03 06:01:23;;;;;;;0.10;0.10;;;;;;;;;;5055494;28;20735;-64
2021/03/03 06:03:50;;;;;;;0.10;0.10;;;;;;;;;;5056721;28;20193;-64
2021/03/03 06:06:18;;;;;;;0.10;0.10;;;;;;;;;;5054524;28;20188;-64
2021/03/03 06:08:50;;;;;;;0.10;0.10;;;;;;;;;;5055658;28;20198;-64
2021/03/03 06:11:18;;;;;;;0.10;0.10;;;;;;;;;;5057619;28;20247;-64
2021/03/03 06:13:45;;;;;;;0.10;0.10;;;;;;;;;;5055781;28;20207;-64
2021/03/03 06:16:12;;;;;;;0.10;0.10;;;;;;;;;;5060807;28;20186;-64
2021/03/03 06:18:38;;;;;;;0.10;0.10;;;;;;;;;;5059473;28;20241;-63
2021/03/03 06:21:05;;;;;;;0.10;0.10;;;;;;;;;;5059644;28;20206;-64
2021/03/03 06:23:32;;;;;;;0.10;0.10;;;;;;;;;;5055900;28;20261;-64
2021/03/03 06:26:04;;;;;;;0.27;0.27;;;;;;;;;;5060393;28;20985;-64
2021/03/03 06:28:32;;;;;;;0.10;0.10;;;;;;;;;;5058673;28;20193;-65
2021/03/03 06:30:58;;;;;;;0.10;0.10;;;;;;;;;;5059554;28;20233;-64
2021/03/03 06:33:26;;;;;;;0.10;0.10;;;;;;;;;;5058560;28;20188;-64
2021/03/03 06:35:53;;;;;;;0.10;0.10;;;;;;;;;;5061274;28;20194;-64
2021/03/03 06:38:27;;;;;;;0.10;0.10;;;;;;;;;;5056390;28;20182;-64
2021/03/03 06:40:54;;;;;;;0.10;0.10;;;;;;;;;;5062537;28;20237;-65
2021/03/03 06:43:21;;;;;;;0.10;0.10;;;;;;;;;;5058651;28;20197;-64
2021/03/03 06:45:48;;;;;;;0.10;0.10;;;;;;;;;;5058283;28;20187;-64
2021/03/03 06:48:14;;;;;;;0.10;0.10;;;;;;;;;;5062472;28;20185;-64
2021/03/03 06:50:44;;;;;;;0.10;0.10;;;;;;;;;;5059745;28;20687;-64
2021/03/03 06:53:10;;;;;;;0.10;0.10;;;;;;;;;;5056187;28;20193;-64
2021/03/03 06:55:44;;;;;;;0.10;0.10;;;;;;;;;;5060485;28;20192;-64
2021/03/03 06:58:24;;;;;;;1.50;0.77;;;;;;;;;;5057345;28;20886;-64
2021/03/03 07:00:51;;;;;;;0.10;0.10;;;;;;;;;;5059744;28;20236;-64
2021/03/03 07:03:24;;;;;;;2.43;1.00;;;;;;;;;;5059518;28;20183;-64
2021/03/03 07:05:51;;;;;;;0.30;0.30;;;;;;;;;;5060828;28;20988;-64
2021/03/03 07:08:18;;;;;;;0.10;0.10;;;;;;;;;;5059538;28;20286;-63
2021/03/03 07:10:45;;;;;;;0.10;0.10;;;;;;;;;;5058818;28;20958;-64
2021/03/03 07:13:12;;;;;;;0.10;0.10;;;;;;;;;;5056056;28;20181;-64
2021/03/03 07:15:38;;;;;;;1.23;1.13;;;;;;;;;;5057691;28;20340;-64
2021/03/03 07:18:05;;;;;;;0.10;0.10;;;;;;;;;;5059803;28;20672;-64
2021/03/03 07:20:32;;;;;;;0.20;0.20;;;;;;;;;;5058113;28;20191;-64
2021/03/03 07:22:59;;;;;;;0.10;0.10;;;;;;;;;;5058341;28;20277;-64
2021/03/03 07:25:25;;;;;;;0.10;0.10;;;;;;;;;;5059957;28;20884;-64
2021/03/03 07:27:55;;;;;;;0.23;0.23;;;;;;;;;;5060048;28;20282;-64
2021/03/03 07:30:25;;;;;;;0.20;0.20;;;;;;;;;;5058153;28;20296;-63
2021/03/03 07:32:52;;;;;;;0.50;0.27;;;;;;;;;;5058944;28;20213;-65
2021/03/03 07:35:20;;;;;;;2.57;0.30;;;;;;;;;;5059214;28;20498;-63
2021/03/03 07:38:05;;;;;;;0.20;0.20;;;;;;;;;;5059981;28;20168;-64
2021/03/03 07:40:32;;;;;;;0.10;0.10;;;;;;;;;;5054646;28;20230;-64
2021/03/03 07:43:00;;;;;;;0.20;0.20;;;;;;;;;;5059321;28;20185;-64
2021/03/03 07:45:29;;;;;;;0.20;0.20;;;;;;;;;;5058007;28;20239;-63
2021/03/03 07:47:56;;;;;;;0.10;0.10;;;;;;;;;;5060767;28;20852;-63
2021/03/03 07:50:23;;;;;;;0.30;0.30;;;;;;;;;;5058053;28;20468;-64
2021/03/03 07:52:56;;;;;;;0.10;0.10;;;;;;;;;;5057864;28;20225;-63
2021/03/03 07:55:23;;;;;;;0.00;0.00;;;;;;;;;;5055883;28;20175;-64
2021/03/03 07:57:52;;;;;;;0.10;0.10;;;;;;;;;;5055833;28;20201;-64
2021/03/03 08:00:25;;;;;;;0.10;0.10;;;;;;;;;;5056698;28;20706;-64
2021/03/03 08:02:53;;;;;;;0.10;0.10;;;;;;;;;;5055625;28;20290;-64
2021/03/03 08:05:26;;;;;;;0.43;0.43;;;;;;;;;;5057635;28;20637;-63
2021/03/03 08:08:16;;;;;;;0.20;0.20;;;;;;;;;;5056056;28;20176;-63
2021/03/03 08:10:43;;;;;;;0.10;0.10;;;;;;;;;;5058496;28;20842;-63
2021/03/03 08:13:09;;;;;;;3.73;0.53;;;;;;;;;;5056132;28;20534;-63
2021/03/03 08:15:49;;;;;;;0.10;0.10;;;;;;;;;;5058269;28;20195;-65
2021/03/03 08:18:15;;;;;;;0.67;0.40;;;;;;;;;;5058693;28;20287;-64
2021/03/03 08:20:43;;;;;;;0.10;0.10;;;;;;;;;;5058356;28;20196;-64
2021/03/03 08:23:09;;;;;;;0.20;0.20;;;;;;;;;;5056269;28;20182;-64
2021/03/03 08:26:05;;;;;;;2.43;2.23;;;;;;;;;;5054271;28;20743;-63
2021/03/03 08:28:34;;;;;;;0.50;0.50;;;;;;;;;;5035467;28;20256;-63
2021/03/03 13:46:03;;;;;;;0.00;0.00;;;;;;;;;;5048617;28;20932;-60
2021/03/03 13:48:29;;;;;;;0.00;0.00;;;;;;;;;;5032074;28;20183;-61
2021/03/03 13:50:56;;;;;;;6.17;3.50;;;;;;;;;;5034244;28;20186;-60
2021/03/03 13:53:23;;;;;;;3.00;0.10;;;;;;;;;;5040074;28;20203;-62
2021/03/03 13:55:49;;;;;;;0.33;0.33;;;;;;;;;;5039058;28;20267;-61
2021/03/03 13:58:16;;;;;;;0.00;0.00;;;;;;;;;;5033744;28;20189;-61
2021/03/03 14:00:42;;;;;;;0.00;0.00;;;;;;;;;;5032543;28;20245;-61
2021/03/03 14:03:09;;;;;;;0.00;0.00;;;;;;;;;;5034082;28;20172;-61
2021/03/03 14:05:36;;;;;;;0.10;0.10;;;;;;;;;;5034347;28;20261;-60
2021/03/03 14:08:03;;;;;;;1.40;0.23;;;;;;;;;;5035998;28;20647;-61
2021/03/03 14:10:30;;;;;;;0.17;0.10;;;;;;;;;;5037537;28;20265;-60
2021/03/03 14:12:57;;;;;;;0.00;0.00;;;;;;;;;;5036786;28;20176;-60
2021/03/03 14:15:24;;;;;;;0.47;0.00;;;;;;;;;;5038946;28;20254;-60
2021/03/03 14:17:51;;;;;;;4.17;3.13;;;;;;;;;;5029771;28;20534;-61
2021/03/03 14:20:19;;;;;;;0.33;0.30;;;;;;;;;;5030164;28;20180;-60
2021/03/03 14:22:45;;;;;;;1.00;0.90;;;;;;;;;;5035801;28;20244;-60
2021/03/03 14:25:12;;;;;;;0.27;0.23;;;;;;;;;;5031669;28;20205;-60
2021/03/03 14:27:38;;;;;;;0.00;0.00;;;;;;;;;;5033264;28;20595;-61
2021/03/03 14:30:05;;;;;;;0.40;0.23;;;;;;;;;;5035160;28;20290;-60
2021/03/03 14:32:32;;;;;;;0.20;0.10;;;;;;;;;;5034362;28;20185;-61
2021/03/03 14:35:00;;;;;;;1.37;1.27;;;;;;;;;;5030901;28;20215;-60
2021/03/03 14:37:27;;;;;;;0.83;0.50;;;;;;;;;;5047841;28;20650;-62
2021/03/03 14:39:54;;;;;;;0.00;0.00;;;;;;;;;;5031259;28;20686;-60
2021/03/03 14:42:20;;;;;;;2.90;0.53;;;;;;;;;;5033395;28;20402;-60
2021/03/03 14:44:48;;;;;;;2.73;0.20;;;;;;;;;;5028140;28;20319;-60
2021/03/03 14:47:15;;;;;;;0.20;0.20;;;;;;;;;;5030989;28;20197;-60
2021/03/03 14:49:42;;;;;;;0.50;0.50;;;;;;;;;;5032663;28;20615;-61
2021/03/03 14:52:09;;;;;;;0.00;0.00;;;;;;;;;;5031127;28;20233;-60
2021/03/03 14:54:36;;;;;;;0.00;0.00;;;;;;;;;;5034155;28;20191;-60
2021/03/03 14:57:03;;;;;;;4.63;1.13;;;;;;;;;;5021492;28;20193;-61
2021/03/03 14:59:31;;;;;;;0.00;0.00;;;;;;;;;;5020526;28;20192;-61
2021/03/03 15:01:57;;;;;;;1.43;0.30;;;;;;;;;;5021666;28;20210;-60
2021/03/03 15:04:24;;;;;;;1.07;0.87;;;;;;;;;;5021532;28;20218;-60
2021/03/03 15:06:52;;;;;;;0.00;0.00;;;;;;;;;;5022263;28;21720;-60
2021/03/03 15:09:20;;;;;;;0.37;0.20;;;;;;;;;;5023223;28;20181;-61
2021/03/03 15:11:47;;;;;;;0.00;0.00;;;;;;;;;;5013139;28;20369;-61
2021/03/03 15:14:15;;;;;;;0.00;0.00;;;;;;;;;;5023876;28;20365;-61
2021/03/03 15:16:41;;;;;;;1.03;0.43;;;;;;;;;;5018430;28;20224;-60
2021/03/03 15:19:08;;;;;;;0.00;0.00;;;;;;;;;;5020097;28;20192;-60
2021/03/03 15:21:34;;;;;;;0.30;0.10;;;;;;;;;;5016610;28;20174;-60
2021/03/03 15:24:01;;;;;;;0.00;0.00;;;;;;;;;;5016833;28;20201;-62
2021/03/03 15:26:27;;;;;;;1.13;0.13;;;;;;;;;;5017306;28;20188;-61
2021/03/03 15:28:54;;;;;;;0.23;0.20;;;;;;;;;;5015849;28;20170;-61
2021/03/03 15:31:21;;;;;;;0.77;0.77;;;;;;;;;;5016566;28;20521;-60
2021/03/03 15:33:48;;;;;;;0.17;0.17;;;;;;;;;;5019725;28;20238;-60
2021/03/03 15:36:15;;;;;;;0.40;0.40;;;;;;;;;;5014017;28;20263;-61
2021/03/03 15:38:42;;;;;;;0.10;0.10;;;;;;;;;;5017339;28;20188;-60
2021/03/03 15:41:09;;;;;;;1.47;0.20;;;;;;;;;;5022642;28;20184;-60
2021/03/03 15:43:36;;;;;;;2.00;1.10;;;;;;;;;;5020329;28;20178;-60
2021/03/03 15:46:02;;;;;;;1.07;0.47;;;;;;;;;;5015489;28;20186;-60
2021/03/03 15:48:29;;;;;;;0.10;0.10;;;;;;;;;;5008838;28;20784;-60
2021/03/03 15:50:56;;;;;;;0.40;0.33;;;;;;;;;;5012529;28;20173;-60
2021/03/03 15:53:24;;;;;;;0.40;0.37;;;;;;;;;;5013011;28;20180;-61
2021/03/03 15:55:50;;;;;;;1.43;0.50;;;;;;;;;;5013130;28;20177;-61
2021/03/03 15:58:18;;;;;;;0.00;0.00;;;;;;;;;;5017961;28;20191;-61
2021/03/03 16:00:45;;;;;;;0.00;0.00;;;;;;;;;;5017837;28;20181;-61
2021/03/03 16:03:12;;;;;;;0.00;0.00;;;;;;;;;;5019690;28;20292;-60
2021/03/03 16:05:39;;;;;;;0.27;0.17;;;;;;;;;;5019897;28;20851;-60
2021/03/03 16:08:05;;;;;;;0.60;0.40;;;;;;;;;;5015285;28;20182;-60
2021/03/03 16:10:32;;;;;;;1.00;0.30;;;;;;;;;;5017586;28;20191;-60
2021/03/03 16:12:59;;;;;;;1.27;0.40;;;;;;;;;;5014381;28;20576;-61
2021/03/03 16:15:25;;;;;;;7.80;7.13;;;;;;;;;;5019348;28;20186;-61
2021/03/03 16:17:52;;;;;;;0.23;0.00;;;;;;;;;;5020486;28;20565;-60
2021/03/03 16:20:19;;;;;;;0.00;0.00;;;;;;;;;;5013329;28;20184;-60
2021/03/03 16:22:47;;;;;;;0.10;0.10;;;;;;;;;;5013709;28;20193;-60
2021/03/03 16:25:13;;;;;;;6.03;0.57;;;;;;;;;;5016569;28;20634;-61
2021/03/03 16:27:41;;;;;;;0.00;0.00;;;;;;;;;;5016347;28;20613;-60
2021/03/03 16:30:09;;;;;;;7.83;0.90;;;;;;;;;;5015981;28;20723;-60
2021/03/03 16:32:36;;;;;;;0.00;0.00;;;;;;;;;;5023785;28;20175;-61
2021/03/03 16:35:04;;;;;;;0.27;0.27;;;;;;;;;;5018796;28;20725;-61
2021/03/03 16:37:31;;;;;;;0.10;0.10;;;;;;;;;;5020321;28;21839;-61
2021/03/03 16:39:58;;;;;;;0.03;0.03;;;;;;;;;;5019641;28;20922;-61
2021/03/03 16:42:25;;;;;;;0.10;0.07;;;;;;;;;;5016498;28;20208;-61
2021/03/03 16:44:52;;;;;;;0.90;0.87;;;;;;;;;;5017368;28;20226;-61
2021/03/03 16:47:19;;;;;;;0.30;0.30;;;;;;;;;;5013781;28;20271;-61
2021/03/03 16:49:46;;;;;;;2.20;0.10;;;;;;;;;;5024322;28;20176;-61
2021/03/03 16:52:15;;;;;;;0.10;0.10;;;;;;;;;;5012923;28;20180;-62
2021/03/03 16:54:44;;;;;;;0.77;0.00;;;;;;;;;;5019033;28;20184;-61
2021/03/03 16:57:11;;;;;;;3.90;0.40;;;;;;;;;;5017689;28;20271;-62
2021/03/03 16:59:38;;;;;;;0.80;0.17;;;;;;;;;;5016464;28;20702;-61
2021/03/03 17:02:07;;;;;;;0.93;0.40;;;;;;;;;;5021059;28;20173;-61
2021/03/03 17:04:36;;;;;;;6.60;0.67;;;;;;;;;;5018890;28;20233;-62
2021/03/03 17:07:05;;;;;;;0.23;0.23;;;;;;;;;;5015984;28;20173;-62
2021/03/03 17:09:34;;;;;;;0.73;0.73;;;;;;;;;;5016471;28;20196;-62
2021/03/03 17:12:02;;;;;;;1.70;0.10;;;;;;;;;;5014200;28;20205;-61
2021/03/03 17:14:29;;;;;;;0.00;0.00;;;;;;;;;;5014566;28;20212;-61
2021/03/03 17:16:55;;;;;;;1.60;0.73;;;;;;;;;;5017564;28;20242;-62
2021/03/03 17:19:23;;;;;;;0.00;0.00;;;;;;;;;;5018359;28;20667;-60
2021/03/03 17:21:50;;;;;;;1.87;0.37;;;;;;;;;;5011770;28;20187;-60
2021/03/03 17:24:17;;;;;;;1.23;0.03;;;;;;;;;;5018746;28;20202;-60
2021/03/03 17:26:45;;;;;;;0.10;0.10;;;;;;;;;;5013973;28;20738;-60
2021/03/03 17:29:11;;;;;;;0.00;0.00;;;;;;;;;;5021830;28;20668;-60
2021/03/03 17:31:44;;;;;;;0.10;0.10;;;;;;;;;;5015949;28;20637;-59
2021/03/03 17:34:12;;;;;;;1.60;0.43;;;;;;;;;;5020472;28;20678;-59
2021/03/03 17:36:39;;;;;;;3.17;3.00;;;;;;;;;;5018431;28;20184;-60
2021/03/03 17:39:06;;;;;;;5.50;0.80;;;;;;;;;;5016770;28;20178;-59
2021/03/03 17:41:33;;;;;;;0.00;0.00;;;;;;;;;;5015177;28;20223;-60
2021/03/03 17:43:59;;;;;;;0.10;0.10;;;;;;;;;;5013097;28;20608;-60
2021/03/03 17:46:26;;;;;;;0.20;0.20;;;;;;;;;;5017291;28;20521;-61
2021/03/03 17:48:53;;;;;;;2.57;0.03;;;;;;;;;;5010566;28;20220;-60
2021/03/03 17:51:19;;;;;;;1.90;0.37;;;;;;;;;;5016266;28;20615;-60
2021/03/03 17:53:46;;;;;;;0.00;0.00;;;;;;;;;;5026400;28;20328;-60
2021/03/03 17:56:14;;;;;;;0.00;0.00;;;;;;;;;;5014987;28;20181;-60
2021/03/03 17:58:42;;;;;;;0.93;0.93;;;;;;;;;;5011431;28;20667;-60
2021/03/03 18:01:09;;;;;;;0.40;0.10;;;;;;;;;;5017939;28;20185;-59
2021/03/03 18:03:38;;;;;;;0.33;0.33;;;;;;;;;;5010189;28;20184;-60
2021/03/03 18:06:06;;;;;;;0.73;0.23;;;;;;;;;;5019903;28;20208;-59
2021/03/03 18:08:33;;;;;;;0.10;0.03;;;;;;;;;;5014115;28;21251;-59
2021/03/03 18:10:59;;;;;;;0.00;0.00;;;;;;;;;;5015247;28;20178;-59
2021/03/03 18:13:26;;;;;;;0.30;0.30;;;;;;;;;;5019500;28;20186;-59
2021/03/03 18:15:52;;;;;;;0.30;0.30;;;;;;;;;;5012701;28;20192;-60
2021/03/03 18:18:19;;;;;;;0.00;0.00;;;;;;;;;;5011280;28;20169;-60
2021/03/03 18:20:46;;;;;;;0.77;0.03;;;;;;;;;;5011476;28;20196;-60
2021/03/03 18:23:12;;;;;;;6.87;6.40;;;;;;;;;;5012989;28;20193;-59
2021/03/03 18:25:39;;;;;;;0.30;0.23;;;;;;;;;;5013365;28;20660;-60
2021/03/03 18:28:07;;;;;;;0.00;0.00;;;;;;;;;;5016890;28;20275;-60
2021/03/03 18:30:34;;;;;;;0.00;0.00;;;;;;;;;;5020996;28;20197;-61
2021/03/03 18:33:00;;;;;;;0.13;0.13;;;;;;;;;;5027350;28;20176;-60
2021/03/03 18:35:28;;;;;;;0.60;0.47;;;;;;;;;;5021100;28;20553;-60
2021/03/03 18:37:56;;;;;;;0.00;0.00;;;;;;;;;;5012142;28;20517;-61
2021/03/03 18:40:24;;;;;;;0.37;0.23;;;;;;;;;;5016101;28;20206;-60
2021/03/03 18:42:54;;;;;;;0.00;0.00;;;;;;;;;;5019319;28;20647;-61
2021/03/03 18:45:23;;;;;;;0.00;0.00;;;;;;;;;;5022588;28;20263;-60
2021/03/03 18:47:49;;;;;;;1.60;0.53;;;;;;;;;;5021010;28;20999;-61
2021/03/03 18:50:16;;;;;;;0.10;0.10;;;;;;;;;;5015403;28;20220;-60
2021/03/03 18:52:44;;;;;;;0.63;0.43;;;;;;;;;;5022525;28;20506;-60
2021/03/03 18:55:11;;;;;;;2.73;0.50;;;;;;;;;;5022709;28;20389;-60
2021/03/03 18:57:37;;;;;;;0.10;0.10;;;;;;;;;;5025127;28;20185;-61
2021/03/03 19:00:05;;;;;;;0.00;0.00;;;;;;;;;;5023364;28;20662;-61
2021/03/03 19:02:32;;;;;;;1.23;0.37;;;;;;;;;;5027681;28;20184;-60
2021/03/03 19:05:00;;;;;;;1.90;0.10;;;;;;;;;;5029067;28;20928;-60
2021/03/03 19:07:30;;;;;;;0.50;0.27;;;;;;;;;;5029883;28;20639;-61
2021/03/03 19:09:56;;;;;;;0.37;0.07;;;;;;;;;;5025082;28;20173;-60
2021/03/03 19:12:23;;;;;;;0.77;0.27;;;;;;;;;;5028003;28;20180;-60
2021/03/03 19:14:50;;;;;;;0.00;0.00;;;;;;;;;;5025546;28;20188;-61
2021/03/03 19:17:23;;;;;;;2.47;1.23;;;;;;;;;;5028596;28;20207;-60
2021/03/03 19:19:50;;;;;;;0.43;0.23;;;;;;;;;;5029838;28;20227;-61
2021/03/03 19:22:26;;;;;;;0.00;0.00;;;;;;;;;;5020694;28;20203;-60
2021/03/03 19:25:01;;;;;;;2.67;0.37;;;;;;;;;;5028844;28;20207;-61
2021/03/03 19:27:29;;;;;;;0.00;0.00;;;;;;;;;;5036260;28;20255;-60
2021/03/03 19:30:01;;;;;;;0.00;0.00;;;;;;;;;;5035904;28;20172;-60
2021/03/03 19:32:28;;;;;;;0.10;0.10;;;;;;;;;;5026863;28;20181;-60
2021/03/03 19:34:55;;;;;;;0.00;0.00;;;;;;;;;;5027725;28;20178;-60
2021/03/03 19:37:30;;;;;;;0.40;0.23;;;;;;;;;;5027714;28;20230;-60
2021/03/03 19:39:57;;;;;;;0.83;0.40;;;;;;;;;;5032471;28;20700;-60
2021/03/03 19:42:24;;;;;;;0.40;0.30;;;;;;;;;;5029405;28;20650;-60
2021/03/03 19:44:52;;;;;;;0.37;0.10;;;;;;;;;;5027062;28;20234;-60
2021/03/03 19:47:20;;;;;;;1.40;0.17;;;;;;;;;;5024484;28;20183;-60
2021/03/03 19:49:56;;;;;;;35.10;2.80;;;;;;;;;;5025956;28;20169;-61
2021/03/03 19:52:23;;;;;;;0.40;0.13;;;;;;;;;;5025987;28;20168;-60
2021/03/03 19:54:53;;;;;;;0.00;0.00;;;;;;;;;;5027293;28;20184;-61
2021/03/03 19:57:20;;;;;;;0.10;0.10;;;;;;;;;;5024353;28;20177;-61
2021/03/03 20:02:34;;;;;;;1.70;0.60;;;;;;;;;;5023950;28;20214;-60
2021/03/03 20:05:00;;;;;;;1.40;0.83;;;;;;;;;;5014776;28;20287;-61